SRV160M LEMH-LFKJ
Flight info
| Callsign | SRV160M |
|---|---|
| Flight time | 0h 46m |
| Altitude | 32000 |
| Route | ISTER UN851 LUNOR DCT NESUL UN851 NEGAT |
| Aircraft | A319/M-SDE3FGHIRWY/LB1 |
Departure
| Time | 2026-05-07 21:43 |
|---|---|
| Airport | Menorca Airport (LEMH) |
Arrival
| Time | 2026-05-07 22:29 |
|---|---|
| Airport | Ajaccio Napoléon Bonaparte airport (LFKJ) |
| Time | Latitude | Longitude | Altitude | Speed | Heading |
|---|---|---|---|---|---|
| 2026-05-07 21:38 | 39.86446 | 4.22315 | 291 ft | 0 kts | 4° |
| 2026-05-07 21:38 | 39.86447 | 4.22315 | 291 ft | 1 kts | 4° |
| 2026-05-07 21:39 | 39.86475 | 4.22318 | 288 ft | 7 kts | 7° |
| 2026-05-07 21:39 | 39.86531 | 4.22300 | 292 ft | 8 kts | 306° |
| 2026-05-07 21:39 | 39.86544 | 4.22239 | 291 ft | 6 kts | 277° |
| 2026-05-07 21:39 | 39.86557 | 4.22184 | 297 ft | 9 kts | 315° |
| 2026-05-07 21:40 | 39.86612 | 4.22175 | 295 ft | 8 kts | 9° |
| 2026-05-07 21:40 | 39.86664 | 4.22187 | 296 ft | 7 kts | 11° |
| 2026-05-07 21:40 | 39.86738 | 4.22207 | 297 ft | 13 kts | 11° |
| 2026-05-07 21:40 | 39.86835 | 4.22223 | 299 ft | 16 kts | 7° |
| 2026-05-07 21:41 | 39.86946 | 4.22246 | 303 ft | 17 kts | 9° |
| 2026-05-07 21:41 | 39.87068 | 4.22272 | 306 ft | 23 kts | 8° |
| 2026-05-07 21:41 | 39.87226 | 4.22306 | 308 ft | 22 kts | 11° |
| 2026-05-07 21:41 | 39.87360 | 4.22324 | 313 ft | 11 kts | 348° |
| 2026-05-07 21:42 | 39.87396 | 4.22249 | 313 ft | 14 kts | 274° |
| 2026-05-07 21:42 | 39.87357 | 4.22101 | 311 ft | 20 kts | 227° |
| 2026-05-07 21:42 | 39.87233 | 4.22063 | 308 ft | 19 kts | 187° |
| 2026-05-07 21:42 | 39.86898 | 4.21997 | 305 ft | 87 kts | 189° |
| 2026-05-07 21:43 | 39.86080 | 4.21827 | 304 ft | 148 kts | 188° |
| 2026-05-07 21:43 | 39.84967 | 4.21582 | 669 ft | 166 kts | 187° |
| 2026-05-07 21:43 | 39.83860 | 4.21302 | 1540 ft | 158 kts | 187° |
| 2026-05-07 21:43 | 39.82792 | 4.21037 | 2287 ft | 159 kts | 186° |
| 2026-05-07 21:44 | 39.81635 | 4.20787 | 2753 ft | 177 kts | 185° |
| 2026-05-07 21:44 | 39.80342 | 4.20540 | 3258 ft | 199 kts | 185° |
| 2026-05-07 21:44 | 39.78897 | 4.20275 | 3923 ft | 220 kts | 185° |
| 2026-05-07 21:44 | 39.77306 | 4.20013 | 4625 ft | 240 kts | 179° |
| 2026-05-07 21:45 | 39.75664 | 4.20487 | 5313 ft | 255 kts | 150° |
| 2026-05-07 21:45 | 39.74372 | 4.22057 | 6323 ft | 259 kts | 121° |
| 2026-05-07 21:45 | 39.73826 | 4.24307 | 7345 ft | 267 kts | 93° |
| 2026-05-07 21:45 | 39.74180 | 4.26688 | 8401 ft | 277 kts | 66° |
| 2026-05-07 21:46 | 39.75275 | 4.28785 | 9456 ft | 285 kts | 51° |
| 2026-05-07 21:46 | 39.76637 | 4.30693 | 10486 ft | 291 kts | 46° |
| 2026-05-07 21:46 | 39.78181 | 4.32553 | 11000 ft | 314 kts | 41° |
| 2026-05-07 21:46 | 39.80013 | 4.34299 | 11402 ft | 339 kts | 33° |
| 2026-05-07 21:47 | 39.82159 | 4.35685 | 12126 ft | 349 kts | 22° |
| 2026-05-07 21:47 | 39.84522 | 4.36525 | 13068 ft | 355 kts | 10° |
| 2026-05-07 21:47 | 39.87009 | 4.36715 | 13947 ft | 362 kts | 358° |
| 2026-05-07 21:47 | 39.89528 | 4.36292 | 14701 ft | 368 kts | 355° |
| 2026-05-07 21:48 | 39.92081 | 4.36497 | 15466 ft | 371 kts | 15° |
| 2026-05-07 21:48 | 39.94459 | 4.37800 | 16210 ft | 373 kts | 34° |
| 2026-05-07 21:48 | 39.96386 | 4.40055 | 16951 ft | 375 kts | 54° |
| 2026-05-07 21:48 | 39.97663 | 4.43010 | 17659 ft | 377 kts | 71° |
| 2026-05-07 21:49 | 39.98492 | 4.46235 | 18341 ft | 383 kts | 74° |
| 2026-05-07 21:49 | 39.99400 | 4.49527 | 19005 ft | 389 kts | 70° |
| 2026-05-07 21:49 | 40.00506 | 4.52776 | 19672 ft | 395 kts | 66° |
| 2026-05-07 21:49 | 40.01772 | 4.55983 | 20369 ft | 400 kts | 63° |
| 2026-05-07 21:50 | 40.03134 | 4.59177 | 21032 ft | 405 kts | 62° |
| 2026-05-07 21:50 | 40.04543 | 4.62383 | 21697 ft | 409 kts | 61° |
| 2026-05-07 21:50 | 40.05981 | 4.65623 | 22310 ft | 414 kts | 61° |
| 2026-05-07 21:50 | 40.07433 | 4.68891 | 22978 ft | 417 kts | 61° |
| 2026-05-07 21:51 | 40.08897 | 4.72183 | 23613 ft | 422 kts | 61° |
| 2026-05-07 21:51 | 40.10375 | 4.75507 | 24156 ft | 425 kts | 61° |
| 2026-05-07 21:51 | 40.11864 | 4.78864 | 24684 ft | 429 kts | 61° |
| 2026-05-07 21:51 | 40.13364 | 4.82252 | 25208 ft | 433 kts | 61° |
| 2026-05-07 21:52 | 40.14875 | 4.85672 | 25717 ft | 436 kts | 61° |
| 2026-05-07 21:52 | 40.16398 | 4.89124 | 26212 ft | 440 kts | 61° |
| 2026-05-07 21:52 | 40.17934 | 4.92607 | 26705 ft | 444 kts | 61° |
| 2026-05-07 21:52 | 40.19481 | 4.96119 | 27174 ft | 447 kts | 61° |
| 2026-05-07 21:53 | 40.21036 | 4.99655 | 27654 ft | 451 kts | 61° |
| 2026-05-07 21:53 | 40.22603 | 5.03220 | 28111 ft | 454 kts | 61° |
| 2026-05-07 21:53 | 40.24184 | 5.06821 | 28557 ft | 457 kts | 61° |
| 2026-05-07 21:53 | 40.25776 | 5.10453 | 28993 ft | 460 kts | 61° |
| 2026-05-07 21:54 | 40.27371 | 5.14096 | 29416 ft | 463 kts | 61° |
| 2026-05-07 21:54 | 40.28959 | 5.17727 | 29834 ft | 466 kts | 62° |
| 2026-05-07 21:54 | 40.30574 | 5.21425 | 30214 ft | 470 kts | 62° |
| 2026-05-07 21:54 | 40.32205 | 5.25164 | 30521 ft | 474 kts | 62° |
| 2026-05-07 21:55 | 40.33847 | 5.28933 | 30852 ft | 477 kts | 62° |
| 2026-05-07 21:55 | 40.35497 | 5.32723 | 31197 ft | 480 kts | 62° |
| 2026-05-07 21:55 | 40.37154 | 5.36536 | 31599 ft | 481 kts | 62° |
| 2026-05-07 21:55 | 40.38813 | 5.40356 | 31961 ft | 482 kts | 62° |
| 2026-05-07 21:56 | 40.42124 | 5.48003 | 31999 ft | 480 kts | 63° |
| 2026-05-07 21:56 | 40.45399 | 5.55584 | 31996 ft | 480 kts | 63° |
| 2026-05-07 21:57 | 40.48690 | 5.63224 | 31999 ft | 481 kts | 63° |
| 2026-05-07 21:57 | 40.51985 | 5.70891 | 32000 ft | 482 kts | 63° |
| 2026-05-07 21:58 | 40.55280 | 5.78579 | 32001 ft | 483 kts | 63° |
| 2026-05-07 21:58 | 40.58577 | 5.86291 | 32005 ft | 484 kts | 63° |
| 2026-05-07 21:59 | 40.61869 | 5.94010 | 32000 ft | 484 kts | 63° |
| 2026-05-07 21:59 | 40.65146 | 6.01717 | 32000 ft | 485 kts | 63° |
| 2026-05-07 22:00 | 40.68444 | 6.09492 | 31998 ft | 486 kts | 63° |
| 2026-05-07 22:00 | 40.71737 | 6.17274 | 32000 ft | 486 kts | 63° |
| 2026-05-07 22:01 | 40.75029 | 6.25073 | 31999 ft | 487 kts | 63° |
| 2026-05-07 22:01 | 40.78319 | 6.32887 | 32000 ft | 488 kts | 64° |
| 2026-05-07 22:02 | 40.81611 | 6.40727 | 31989 ft | 488 kts | 64° |
| 2026-05-07 22:02 | 40.84904 | 6.48589 | 31985 ft | 489 kts | 64° |
| 2026-05-07 22:03 | 40.86552 | 6.52531 | 31838 ft | 490 kts | 64° |
| 2026-05-07 22:03 | 40.88196 | 6.56472 | 31461 ft | 490 kts | 64° |
| 2026-05-07 22:03 | 40.89816 | 6.60361 | 30831 ft | 490 kts | 63° |
| 2026-05-07 22:03 | 40.91458 | 6.64311 | 30005 ft | 491 kts | 63° |
| 2026-05-07 22:04 | 40.93097 | 6.68257 | 29257 ft | 486 kts | 63° |
| 2026-05-07 22:04 | 40.94711 | 6.72142 | 28839 ft | 475 kts | 63° |
| 2026-05-07 22:04 | 40.96281 | 6.75923 | 28352 ft | 466 kts | 63° |
| 2026-05-07 22:04 | 40.97829 | 6.79659 | 27765 ft | 460 kts | 63° |
| 2026-05-07 22:05 | 40.99357 | 6.83353 | 27216 ft | 454 kts | 63° |
| 2026-05-07 22:05 | 41.00859 | 6.86990 | 26659 ft | 448 kts | 63° |
| 2026-05-07 22:05 | 41.02347 | 6.90596 | 26112 ft | 443 kts | 63° |
| 2026-05-07 22:05 | 41.03819 | 6.94166 | 25570 ft | 438 kts | 63° |
| 2026-05-07 22:06 | 41.05272 | 6.97696 | 25010 ft | 434 kts | 63° |
| 2026-05-07 22:06 | 41.06710 | 7.01192 | 24478 ft | 430 kts | 63° |
| 2026-05-07 22:06 | 41.08131 | 7.04646 | 23934 ft | 426 kts | 63° |
| 2026-05-07 22:06 | 41.09557 | 7.08118 | 23090 ft | 429 kts | 63° |
| 2026-05-07 22:07 | 41.10961 | 7.11541 | 22502 ft | 424 kts | 63° |
| 2026-05-07 22:07 | 41.12349 | 7.14924 | 22191 ft | 413 kts | 63° |
| 2026-05-07 22:07 | 41.13735 | 7.18307 | 21763 ft | 411 kts | 63° |
| 2026-05-07 22:07 | 41.15078 | 7.21589 | 21239 ft | 408 kts | 63° |
| 2026-05-07 22:08 | 41.16435 | 7.24920 | 20395 ft | 411 kts | 63° |
| 2026-05-07 22:08 | 41.17793 | 7.28260 | 19757 ft | 410 kts | 63° |
| 2026-05-07 22:08 | 41.19132 | 7.31553 | 19418 ft | 399 kts | 63° |
| 2026-05-07 22:08 | 41.20433 | 7.34754 | 19141 ft | 391 kts | 63° |
| 2026-05-07 22:09 | 41.21720 | 7.37925 | 18654 ft | 389 kts | 63° |
| 2026-05-07 22:09 | 41.22998 | 7.41079 | 18121 ft | 386 kts | 63° |
| 2026-05-07 22:09 | 41.24264 | 7.44205 | 17602 ft | 381 kts | 63° |
| 2026-05-07 22:09 | 41.25511 | 7.47288 | 17111 ft | 375 kts | 63° |
| 2026-05-07 22:10 | 41.26743 | 7.50336 | 16618 ft | 370 kts | 63° |
| 2026-05-07 22:10 | 41.27953 | 7.53333 | 16144 ft | 366 kts | 63° |
| 2026-05-07 22:10 | 41.29149 | 7.56299 | 15662 ft | 362 kts | 63° |
| 2026-05-07 22:10 | 41.30316 | 7.59194 | 15193 ft | 358 kts | 63° |
| 2026-05-07 22:11 | 41.31485 | 7.62096 | 14725 ft | 354 kts | 63° |
| 2026-05-07 22:11 | 41.32639 | 7.64968 | 14265 ft | 351 kts | 63° |
| 2026-05-07 22:11 | 41.33785 | 7.67822 | 13795 ft | 347 kts | 63° |
| 2026-05-07 22:11 | 41.34914 | 7.70636 | 13322 ft | 343 kts | 63° |
| 2026-05-07 22:12 | 41.36033 | 7.73424 | 12879 ft | 339 kts | 63° |
| 2026-05-07 22:12 | 41.37134 | 7.76175 | 12431 ft | 334 kts | 63° |
| 2026-05-07 22:12 | 41.38224 | 7.78899 | 11989 ft | 331 kts | 63° |
| 2026-05-07 22:12 | 41.39297 | 7.81584 | 11578 ft | 327 kts | 63° |
| 2026-05-07 22:13 | 41.40346 | 7.84211 | 11159 ft | 324 kts | 63° |
| 2026-05-07 22:13 | 41.41387 | 7.86899 | 10672 ft | 321 kts | 67° |
| 2026-05-07 22:13 | 41.42291 | 7.89611 | 10128 ft | 323 kts | 67° |
| 2026-05-07 22:13 | 41.43188 | 7.92299 | 9994 ft | 310 kts | 67° |
| 2026-05-07 22:14 | 41.44049 | 7.94871 | 9881 ft | 298 kts | 67° |
| 2026-05-07 22:14 | 41.44879 | 7.97355 | 9745 ft | 291 kts | 68° |
| 2026-05-07 22:14 | 41.45708 | 7.99842 | 9606 ft | 294 kts | 68° |
| 2026-05-07 22:14 | 41.46536 | 8.02330 | 9462 ft | 293 kts | 68° |
| 2026-05-07 22:15 | 41.47084 | 8.03975 | 9254 ft | 293 kts | 68° |
| 2026-05-07 22:15 | 41.47905 | 8.06444 | 8933 ft | 290 kts | 67° |
| 2026-05-07 22:15 | 41.48718 | 8.08889 | 8612 ft | 286 kts | 67° |
| 2026-05-07 22:15 | 41.49517 | 8.11293 | 8291 ft | 282 kts | 67° |
| 2026-05-07 22:16 | 41.50560 | 8.14434 | 7872 ft | 277 kts | 67° |
| 2026-05-07 22:16 | 41.51334 | 8.16769 | 7567 ft | 273 kts | 67° |
| 2026-05-07 22:16 | 41.51851 | 8.18328 | 7358 ft | 271 kts | 67° |
| 2026-05-07 22:16 | 41.52609 | 8.20617 | 7048 ft | 268 kts | 67° |
| 2026-05-07 22:17 | 41.53345 | 8.22845 | 6746 ft | 265 kts | 67° |
| 2026-05-07 22:17 | 41.54085 | 8.25085 | 6455 ft | 262 kts | 67° |
| 2026-05-07 22:17 | 41.54819 | 8.27306 | 6151 ft | 260 kts | 67° |
| 2026-05-07 22:17 | 41.55544 | 8.29504 | 5859 ft | 257 kts | 67° |
| 2026-05-07 22:18 | 41.56260 | 8.31672 | 5593 ft | 253 kts | 67° |
| 2026-05-07 22:18 | 41.57662 | 8.35928 | 5019 ft | 252 kts | 66° |
| 2026-05-07 22:18 | 41.58364 | 8.38061 | 4727 ft | 250 kts | 66° |
| 2026-05-07 22:19 | 41.59063 | 8.40187 | 4439 ft | 248 kts | 67° |
| 2026-05-07 22:19 | 41.59754 | 8.42286 | 4152 ft | 246 kts | 67° |
| 2026-05-07 22:19 | 41.60439 | 8.44371 | 3869 ft | 244 kts | 67° |
| 2026-05-07 22:19 | 41.61119 | 8.46439 | 3640 ft | 240 kts | 67° |
| 2026-05-07 22:20 | 41.61817 | 8.48411 | 3554 ft | 230 kts | 60° |
| 2026-05-07 22:20 | 41.62702 | 8.50140 | 3478 ft | 220 kts | 55° |
| 2026-05-07 22:20 | 41.63569 | 8.51777 | 3373 ft | 213 kts | 56° |
| 2026-05-07 22:20 | 41.64413 | 8.53388 | 3150 ft | 210 kts | 56° |
| 2026-05-07 22:21 | 41.65224 | 8.54943 | 3058 ft | 195 kts | 56° |
| 2026-05-07 22:21 | 41.65985 | 8.56406 | 3004 ft | 195 kts | 56° |
| 2026-05-07 22:21 | 41.66750 | 8.57875 | 3006 ft | 188 kts | 56° |
| 2026-05-07 22:21 | 41.67454 | 8.59223 | 2991 ft | 166 kts | 56° |
| 2026-05-07 22:22 | 41.68075 | 8.60412 | 2990 ft | 146 kts | 56° |
| 2026-05-07 22:22 | 41.68672 | 8.61556 | 3000 ft | 151 kts | 55° |
| 2026-05-07 22:22 | 41.69267 | 8.62698 | 3005 ft | 149 kts | 55° |
| 2026-05-07 22:22 | 41.69863 | 8.63840 | 3003 ft | 149 kts | 55° |
| 2026-05-07 22:23 | 41.70459 | 8.64980 | 3003 ft | 149 kts | 55° |
| 2026-05-07 22:23 | 41.71056 | 8.66120 | 3002 ft | 149 kts | 54° |
| 2026-05-07 22:23 | 41.71751 | 8.67146 | 2999 ft | 149 kts | 39° |
| 2026-05-07 22:23 | 41.72622 | 8.67912 | 3001 ft | 150 kts | 28° |
| 2026-05-07 22:24 | 41.73556 | 8.68529 | 2999 ft | 149 kts | 24° |
| 2026-05-07 22:24 | 41.74502 | 8.69110 | 3002 ft | 149 kts | 25° |
| 2026-05-07 22:24 | 41.75434 | 8.69689 | 2999 ft | 150 kts | 24° |
| 2026-05-07 22:24 | 41.76376 | 8.70274 | 3002 ft | 149 kts | 24° |
| 2026-05-07 22:25 | 41.77320 | 8.70861 | 2984 ft | 150 kts | 24° |
| 2026-05-07 22:25 | 41.78268 | 8.71450 | 2806 ft | 148 kts | 24° |
| 2026-05-07 22:25 | 41.79197 | 8.72028 | 2624 ft | 148 kts | 24° |
| 2026-05-07 22:25 | 41.80141 | 8.72619 | 2424 ft | 143 kts | 24° |
| 2026-05-07 22:26 | 41.80986 | 8.73140 | 2238 ft | 130 kts | 24° |
| 2026-05-07 22:26 | 41.81812 | 8.73654 | 2066 ft | 130 kts | 24° |
| 2026-05-07 22:26 | 41.82630 | 8.74163 | 1888 ft | 129 kts | 24° |
| 2026-05-07 22:26 | 41.83445 | 8.74670 | 1722 ft | 129 kts | 24° |
| 2026-05-07 22:27 | 41.84255 | 8.75174 | 1550 ft | 128 kts | 25° |
| 2026-05-07 22:27 | 41.85066 | 8.75681 | 1369 ft | 125 kts | 25° |
| 2026-05-07 22:27 | 41.85856 | 8.76171 | 1204 ft | 126 kts | 25° |
| 2026-05-07 22:27 | 41.86651 | 8.76667 | 1041 ft | 125 kts | 25° |
| 2026-05-07 22:28 | 41.87430 | 8.77152 | 880 ft | 125 kts | 25° |
| 2026-05-07 22:28 | 41.88217 | 8.77643 | 711 ft | 125 kts | 25° |
| 2026-05-07 22:28 | 41.89006 | 8.78135 | 550 ft | 125 kts | 25° |
| 2026-05-07 22:28 | 41.89787 | 8.78623 | 383 ft | 123 kts | 25° |
| 2026-05-07 22:29 | 41.90570 | 8.79100 | 229 ft | 124 kts | 26° |
| 2026-05-07 22:29 | 41.91344 | 8.79595 | 54 ft | 123 kts | 25° |
| 2026-05-07 22:29 | 41.92036 | 8.80025 | 26 ft | 87 kts | 25° |
| 2026-05-07 22:29 | 41.92359 | 8.80224 | 25 ft | 19 kts | 20° |
| 2026-05-07 22:30 | 41.92395 | 8.80110 | 26 ft | 19 kts | 266° |
| 2026-05-07 22:30 | 41.92406 | 8.79986 | 21 ft | 11 kts | 278° |
| 2026-05-07 22:30 | 41.92369 | 8.79897 | 22 ft | 14 kts | 204° |
| 2026-05-07 22:30 | 41.92269 | 8.79836 | 23 ft | 18 kts | 205° |
| 2026-05-07 22:31 | 41.92151 | 8.79763 | 22 ft | 19 kts | 205° |
| 2026-05-07 22:31 | 41.92120 | 8.79744 | 21 ft | 0 kts | 204° |
| 2026-05-07 22:32 | 41.92099 | 8.79720 | 22 ft | 4 kts | 264° |
| 2026-05-07 22:32 | 41.92118 | 8.79687 | 21 ft | 5 kts | 331° |
| 2026-05-07 22:32 | 41.92138 | 8.79680 | 23 ft | 0 kts | 348° |